Time;durP1;ratioP1;P1;durP2;ratioP2;P2;SDS_P1;SDS_P2;PMS_P1;PMS_P2;Temp;Humidity;BMP_temperature;BMP_pressure;BME280_temperature;BME280_humidity;BME280_pressure;Samples;Min_cycle;Max_cycle;Signal;HPM_P1;HPM_P2
2023/03/07 04:01:26;;;;;;;13.70;11.80;;;3.80;99.90;;;;;;5435459;23;20246;-77
2023/03/07 04:03:55;;;;;;;17.67;11.50;;;3.80;99.90;;;;;;4929880;29;20179;-78
2023/03/07 04:06:25;;;;;;;12.73;11.30;;;3.90;99.90;;;;;;4928349;29;20191;-78
2023/03/07 04:08:51;;;;;;;18.97;12.17;;;3.90;99.90;;;;;;4927237;29;20179;-78
2023/03/07 04:11:18;;;;;;;15.50;12.07;;;3.90;99.90;;;;;;4925199;29;20215;-78
2023/03/07 04:13:44;;;;;;;14.50;11.47;;;3.90;99.90;;;;;;4923953;29;20231;-77
2023/03/07 04:16:10;;;;;;;15.43;12.93;;;4.00;99.90;;;;;;4928941;29;20183;-77
2023/03/07 04:18:36;;;;;;;17.10;13.20;;;3.90;99.90;;;;;;4923536;29;20269;-78
2023/03/07 04:21:03;;;;;;;14.83;12.80;;;3.90;99.90;;;;;;4919124;29;20199;-77
2023/03/07 04:23:31;;;;;;;17.93;13.33;;;4.00;99.90;;;;;;4933104;29;20193;-78
2023/03/07 04:25:59;;;;;;;17.00;13.17;;;3.90;99.90;;;;;;4939328;29;20182;-77
2023/03/07 04:31:27;;;;;;;16.93;13.30;;;4.00;99.90;;;;;;4938897;29;20225;-77
2023/03/07 04:33:54;;;;;;;16.40;14.63;;;4.00;99.90;;;;;;4920668;29;20282;-78
2023/03/07 04:36:22;;;;;;;17.07;14.77;;;4.00;99.90;;;;;;4923007;29;20191;-77
2023/03/07 04:38:49;;;;;;;18.37;14.00;;;4.00;99.90;;;;;;4926378;29;20314;-78
2023/03/07 04:41:17;;;;;;;15.87;14.27;;;4.00;99.90;;;;;;4926569;29;20234;-77
2023/03/07 04:43:43;;;;;;;17.30;15.30;;;4.00;99.90;;;;;;4937701;29;20658;-78
2023/03/07 04:46:10;;;;;;;16.50;13.33;;;4.00;99.90;;;;;;4943729;29;20303;-77
2023/03/07 04:48:36;;;;;;;19.10;14.57;;;4.00;99.90;;;;;;4931266;29;20190;-77
2023/03/07 04:51:02;;;;;;;18.40;13.60;;;4.00;99.90;;;;;;4946102;29;20210;-78
2023/03/07 04:53:28;;;;;;;15.23;12.67;;;3.90;99.90;;;;;;4945139;29;20202;-78
2023/03/07 04:56:02;;;;;;;18.17;13.37;;;3.90;99.90;;;;;;4945532;29;20412;-78
2023/03/07 04:58:30;;;;;;;15.17;13.50;;;3.90;99.90;;;;;;4940721;29;20238;-78
2023/03/07 05:00:56;;;;;;;15.83;13.60;;;3.90;99.90;;;;;;4926653;29;20230;-78
2023/03/07 05:03:23;;;;;;;16.77;12.43;;;3.90;99.90;;;;;;4922340;29;20190;-77
2023/03/07 05:05:49;;;;;;;17.23;12.93;;;3.90;99.90;;;;;;4941742;29;20593;-73
2023/03/07 05:08:15;;;;;;;18.70;13.30;;;3.90;99.90;;;;;;4935285;29;20194;-75
2023/03/07 05:10:41;;;;;;;17.93;12.90;;;3.90;99.90;;;;;;4935806;29;20229;-73
2023/03/07 05:13:07;;;;;;;15.47;13.37;;;3.90;99.90;;;;;;4935201;29;20246;-76
2023/03/07 05:15:33;;;;;;;20.93;12.57;;;3.90;99.90;;;;;;4922720;29;20195;-73
2023/03/07 05:17:59;;;;;;;16.20;13.77;;;3.90;99.90;;;;;;4935966;29;20225;-73
2023/03/07 05:20:26;;;;;;;14.63;13.03;;;3.90;99.90;;;;;;4923590;29;20269;-73
2023/03/07 05:22:52;;;;;;;15.93;14.23;;;3.90;99.90;;;;;;4930131;29;20606;-73
2023/03/07 05:25:17;;;;;;;16.50;14.13;;;3.90;99.90;;;;;;4929947;29;20174;-74
2023/03/07 05:27:43;;;;;;;17.30;14.73;;;4.00;99.90;;;;;;4921183;29;20191;-74
2023/03/07 05:30:10;;;;;;;18.37;15.90;;;4.00;99.90;;;;;;4917532;29;20179;-74
2023/03/07 05:32:36;;;;;;;15.73;14.10;;;3.90;99.90;;;;;;4931021;29;20190;-75
2023/03/07 05:35:03;;;;;;;18.50;14.77;;;4.00;99.90;;;;;;4941640;29;20701;-75
2023/03/07 05:37:28;;;;;;;17.43;15.63;;;4.00;99.90;;;;;;4941561;29;20206;-75
2023/03/07 05:39:54;;;;;;;19.00;14.63;;;4.10;99.90;;;;;;4942247;29;20178;-74
2023/03/07 05:42:20;;;;;;;25.10;22.90;;;4.00;99.90;;;;;;4960746;29;20697;-74
2023/03/07 05:44:46;;;;;;;17.87;16.07;;;4.00;99.90;;;;;;4960017;29;20224;-75
2023/03/07 05:47:11;;;;;;;17.97;15.97;;;4.10;99.90;;;;;;4938358;29;20698;-75
2023/03/07 05:49:37;;;;;;;17.63;15.87;;;4.20;99.90;;;;;;4940928;29;20858;-75
2023/03/07 05:52:03;;;;;;;18.40;16.67;;;4.10;99.90;;;;;;4941919;29;20217;-75
2023/03/07 05:54:29;;;;;;;21.60;19.70;;;4.10;99.90;;;;;;4936239;29;20189;-75
2023/03/07 05:56:55;;;;;;;18.47;16.27;;;4.10;99.90;;;;;;4921926;29;20203;-74
2023/03/07 05:59:20;;;;;;;20.80;18.73;;;4.10;99.90;;;;;;4913880;29;20659;-74
2023/03/07 06:01:46;;;;;;;17.60;15.87;;;4.10;99.90;;;;;;4915216;29;20211;-73
2023/03/07 06:04:12;;;;;;;20.90;19.00;;;4.10;99.90;;;;;;4916410;29;20190;-74
2023/03/07 06:06:38;;;;;;;18.73;17.03;;;4.10;99.90;;;;;;4915684;29;20201;-73
2023/03/07 06:09:04;;;;;;;41.47;38.33;;;4.00;99.90;;;;;;4915357;29;20548;-73
2023/03/07 06:11:31;;;;;;;18.10;16.20;;;4.00;99.90;;;;;;4915312;29;20203;-74
2023/03/07 06:13:57;;;;;;;20.93;19.07;;;4.00;99.90;;;;;;4916913;29;20179;-74
2023/03/07 06:16:23;;;;;;;19.67;17.70;;;4.10;99.90;;;;;;4915080;29;20262;-74
2023/03/07 06:18:49;;;;;;;18.10;16.20;;;4.10;99.90;;;;;;4914511;29;20301;-74
2023/03/07 06:21:16;;;;;;;19.37;17.60;;;4.00;99.90;;;;;;4915175;29;20203;-75
2023/03/07 06:23:42;;;;;;;19.40;17.23;;;4.10;99.90;;;;;;4916547;29;20270;-73
2023/03/07 06:26:11;;;;;;;21.57;19.67;;;4.10;99.90;;;;;;4915453;29;20205;-73
2023/03/07 06:28:37;;;;;;;19.37;17.53;;;4.10;99.90;;;;;;4916158;29;20195;-74
2023/03/07 06:31:08;;;;;;;18.87;17.10;;;4.10;99.90;;;;;;4915184;29;20210;-74
2023/03/07 06:33:34;;;;;;;17.73;15.47;;;4.10;99.90;;;;;;4916320;29;20254;-73
2023/03/07 06:36:04;;;;;;;19.67;17.97;;;4.10;99.90;;;;;;4916349;29;20191;-74
2023/03/07 06:38:30;;;;;;;25.00;22.80;;;4.20;99.90;;;;;;4915989;29;20309;-74
2023/03/07 06:40:56;;;;;;;19.47;17.57;;;4.20;99.90;;;;;;4916094;29;20302;-73
2023/03/07 06:43:22;;;;;;;20.80;18.77;;;4.20;99.90;;;;;;4916210;29;20207;-74
2023/03/07 06:45:47;;;;;;;18.83;17.03;;;4.20;99.90;;;;;;4914851;29;20183;-73
2023/03/07 06:48:13;;;;;;;19.63;17.70;;;4.30;99.90;;;;;;4914764;29;20242;-75
2023/03/07 06:50:39;;;;;;;17.30;15.80;;;4.30;99.90;;;;;;4915703;29;20226;-73
2023/03/07 06:53:05;;;;;;;16.90;15.30;;;4.30;99.90;;;;;;4917398;29;20187;-73
2023/03/07 06:55:30;;;;;;;16.83;15.33;;;4.40;99.90;;;;;;4917431;29;20281;-73
2023/03/07 06:57:56;;;;;;;20.77;15.57;;;4.40;99.90;;;;;;4915348;29;20226;-73
2023/03/07 07:00:22;;;;;;;16.60;14.97;;;4.50;99.90;;;;;;4915541;29;20182;-73
2023/03/07 07:02:48;;;;;;;17.43;15.70;;;4.50;99.90;;;;;;4915944;29;20694;-73
2023/03/07 07:05:14;;;;;;;17.00;15.43;;;4.50;99.90;;;;;;4915898;29;20175;-74
2023/03/07 07:07:40;;;;;;;16.07;14.43;;;4.60;99.90;;;;;;4914880;29;20194;-73
2023/03/07 07:10:06;;;;;;;15.47;13.10;;;4.60;99.90;;;;;;4915862;29;20648;-73
2023/03/07 07:12:32;;;;;;;15.00;13.13;;;4.70;99.90;;;;;;4915681;29;20709;-74
2023/03/07 07:15:01;;;;;;;15.80;13.53;;;4.70;99.90;;;;;;4914623;29;20194;-74
2023/03/07 07:17:28;;;;;;;14.83;13.37;;;4.80;99.90;;;;;;4915950;29;20279;-75
2023/03/07 07:19:54;;;;;;;14.43;12.90;;;4.80;99.90;;;;;;4915865;29;20670;-74
2023/03/07 07:22:19;;;;;;;12.97;11.70;;;4.80;99.90;;;;;;4916000;29;20202;-73
2023/03/07 07:24:45;;;;;;;13.97;12.57;;;4.90;99.90;;;;;;4915538;29;20187;-74
2023/03/07 07:27:11;;;;;;;14.37;12.60;;;4.90;99.90;;;;;;4915575;29;20671;-74
2023/03/07 07:29:37;;;;;;;13.40;12.03;;;4.90;99.90;;;;;;4914016;29;20183;-75
2023/03/07 07:32:03;;;;;;;14.17;12.77;;;4.90;99.90;;;;;;4923772;29;20238;-74
2023/03/07 07:34:29;;;;;;;12.40;10.50;;;4.90;99.90;;;;;;4915879;29;20675;-74
2023/03/07 07:36:55;;;;;;;11.67;10.47;;;5.00;99.90;;;;;;4915354;29;20238;-74
2023/03/07 07:39:22;;;;;;;14.20;10.97;;;5.00;99.90;;;;;;4913929;29;20210;-74
2023/03/07 07:41:47;;;;;;;13.23;10.63;;;5.10;99.90;;;;;;4915549;29;20203;-74
2023/03/07 07:44:13;;;;;;;13.70;10.77;;;5.10;99.90;;;;;;4915324;29;20687;-74
2023/03/07 07:46:39;;;;;;;11.20;10.00;;;5.20;99.90;;;;;;4914056;29;20266;-74
2023/03/07 07:49:05;;;;;;;14.30;10.00;;;5.20;99.90;;;;;;4915068;29;20182;-73
2023/03/07 07:51:30;;;;;;;11.03;9.83;;;5.30;99.90;;;;;;4915299;29;20634;-74
2023/03/07 07:53:56;;;;;;;10.53;9.40;;;5.40;99.90;;;;;;4915294;29;20186;-74
2023/03/07 07:56:22;;;;;;;10.67;9.57;;;5.60;99.90;;;;;;4915182;29;20198;-74
2023/03/07 07:58:48;;;;;;;14.07;11.17;;;5.80;99.90;;;;;;4914744;29;20214;-74
2023/03/07 08:01:19;;;;;;;16.87;11.43;;;5.90;99.90;;;;;;4913693;29;20317;-74
2023/03/07 08:03:45;;;;;;;12.97;11.70;;;6.00;99.90;;;;;;4915458;29;20238;-74
2023/03/07 08:06:12;;;;;;;12.73;11.57;;;6.10;99.90;;;;;;4913959;29;20183;-74
2023/03/07 08:08:38;;;;;;;13.17;11.97;;;6.20;99.90;;;;;;4914616;29;20182;-75
2023/03/07 08:11:04;;;;;;;11.80;10.60;;;6.20;99.90;;;;;;4913437;29;20209;-73
2023/03/07 08:13:30;;;;;;;13.17;11.57;;;6.20;99.90;;;;;;4914956;29;20201;-74
2023/03/07 08:15:56;;;;;;;13.37;11.03;;;6.30;99.90;;;;;;4914057;29;20229;-75
2023/03/07 08:18:22;;;;;;;14.30;10.00;;;6.40;99.90;;;;;;4913724;29;20242;-73
2023/03/07 08:20:47;;;;;;;13.20;9.93;;;6.50;99.90;;;;;;4913746;29;20408;-74
2023/03/07 08:23:13;;;;;;;13.07;11.10;;;6.50;99.90;;;;;;4913836;29;20179;-74
2023/03/07 08:25:39;;;;;;;12.30;11.00;;;6.70;99.90;;;;;;4913765;29;20600;-74
2023/03/07 08:28:05;;;;;;;12.83;10.53;;;6.60;99.90;;;;;;4914907;29;20282;-73
2023/03/07 08:30:34;;;;;;;11.73;10.03;;;6.50;99.90;;;;;;4914417;29;20289;-73
2023/03/07 08:33:00;;;;;;;12.67;10.67;;;6.50;99.90;;;;;;4915084;29;20223;-73
2023/03/07 08:35:27;;;;;;;11.60;10.50;;;6.70;99.90;;;;;;4913702;29;20187;-73
2023/03/07 08:37:54;;;;;;;12.73;10.13;;;6.80;99.90;;;;;;4913637;29;20213;-75
2023/03/07 08:40:22;;;;;;;13.10;11.43;;;6.90;99.90;;;;;;4915198;29;20179;-73
2023/03/07 08:42:48;;;;;;;14.30;11.97;;;7.10;99.90;;;;;;4918647;29;20335;-74
2023/03/07 08:45:14;;;;;;;13.57;12.23;;;7.10;99.90;;;;;;4918575;29;20203;-73
2023/03/07 08:47:40;;;;;;;12.90;11.80;;;7.40;99.90;;;;;;4918629;29;20234;-74
2023/03/07 08:50:06;;;;;;;13.83;11.90;;;7.70;99.90;;;;;;4918223;29;20182;-73
2023/03/07 08:52:32;;;;;;;13.40;11.60;;;7.80;99.90;;;;;;4918220;29;20207;-73
2023/03/07 08:54:58;;;;;;;15.00;12.00;;;7.90;99.90;;;;;;4918278;29;20187;-73
2023/03/07 08:57:24;;;;;;;13.60;10.40;;;7.80;99.90;;;;;;4918166;29;20215;-74
2023/03/07 08:59:50;;;;;;;14.83;10.40;;;7.70;99.90;;;;;;4917814;29;20250;-74
2023/03/07 09:02:16;;;;;;;12.20;10.90;;;8.00;99.90;;;;;;4918362;29;20716;-74
2023/03/07 09:04:42;;;;;;;13.47;11.50;;;8.20;99.90;;;;;;4918091;29;20548;-74
2023/03/07 09:07:07;;;;;;;11.00;10.00;;;8.40;99.90;;;;;;4918133;29;20191;-75
2023/03/07 09:09:33;;;;;;;10.60;9.60;;;8.50;99.90;;;;;;4916454;29;20189;-73
2023/03/07 09:11:59;;;;;;;11.23;10.13;;;8.40;99.90;;;;;;4917824;29;20199;-73
2023/03/07 09:14:24;;;;;;;11.33;10.23;;;8.30;99.90;;;;;;4917915;29;20275;-74
2023/03/07 09:16:50;;;;;;;12.10;11.00;;;8.70;99.90;;;;;;4917981;29;20563;-73
2023/03/07 09:19:16;;;;;;;11.63;10.53;;;8.90;99.90;;;;;;4916284;29;20218;-74
2023/03/07 09:21:42;;;;;;;11.53;9.40;;;9.00;99.90;;;;;;4917832;29;20293;-74
2023/03/07 09:24:07;;;;;;;10.27;9.27;;;9.10;99.90;;;;;;4918404;29;20213;-73
2023/03/07 09:26:33;;;;;;;11.20;10.10;;;9.40;99.90;;;;;;4916709;29;20182;-73
2023/03/07 09:28:59;;;;;;;11.87;10.17;;;9.50;99.90;;;;;;4917401;29;20191;-73
2023/03/07 09:31:25;;;;;;;10.90;9.80;;;9.40;99.90;;;;;;4917446;29;20233;-74
2023/03/07 09:33:51;;;;;;;10.80;9.33;;;9.20;99.90;;;;;;4917980;29;20195;-74
2023/03/07 09:36:19;;;;;;;10.90;9.53;;;9.00;99.90;;;;;;4917656;29;20199;-73
2023/03/07 09:38:45;;;;;;;11.27;10.13;;;8.80;99.90;;;;;;4917762;29;20270;-74
2023/03/07 09:41:32;;;;;;;10.50;9.40;;;8.70;99.90;;;;;;4918368;29;20207;-73
2023/03/07 09:44:17;;;;;;;13.37;9.37;;;8.60;99.90;;;;;;4917651;29;20738;-73
2023/03/07 09:47:09;;;;;;;11.67;9.77;;;8.50;99.90;;;;;;4916482;29;20183;-75
2023/03/07 09:49:47;;;;;;;11.43;9.60;;;8.70;99.90;;;;;;4915990;29;20183;-73
2023/03/07 09:52:20;;;;;;;11.30;9.23;;;8.80;99.90;;;;;;4914865;29;20211;-73
2023/03/07 09:55:17;;;;;;;8.80;7.90;;;8.60;99.90;;;;;;4917246;29;20274;-73
2023/03/07 09:57:50;;;;;;;10.73;8.87;;;8.60;99.90;;;;;;4908898;29;20230;-72
2023/03/07 10:00:30;;;;;;;9.70;8.80;;;8.80;99.90;;;;;;4916695;29;20262;-73
2023/03/07 10:03:18;;;;;;;8.87;8.03;;;8.80;99.90;;;;;;4917010;29;20194;-73
2023/03/07 10:05:48;;;;;;;9.80;8.80;;;8.20;99.90;;;;;;4904145;29;20203;-73
2023/03/07 10:08:17;;;;;;;9.40;8.50;;;7.90;99.90;;;;;;4915637;29;20190;-72
2023/03/07 10:10:56;;;;;;;8.93;8.00;;;7.60;99.90;;;;;;4915192;29;20214;-73
2023/03/07 10:13:40;;;;;;;9.57;8.67;;;7.30;99.90;;;;;;4915566;29;20199;-73
2023/03/07 10:16:15;;;;;;;8.37;7.67;;;7.30;99.90;;;;;;4952417;23;20230;-74
2023/03/07 10:18:58;;;;;;;7.90;7.20;;;7.30;99.90;;;;;;4934017;29;20694;-73
2023/03/07 10:21:45;;;;;;;12.07;7.60;;;7.20;99.90;;;;;;4935613;29;20190;-73
2023/03/07 10:24:30;;;;;;;8.30;7.40;;;7.30;99.90;;;;;;4933776;29;20612;-73
2023/03/07 10:27:14;;;;;;;8.47;7.77;;;7.50;99.90;;;;;;4916751;29;20183;-74
2023/03/07 10:29:46;;;;;;;8.60;7.90;;;7.40;99.90;;;;;;4916286;29;20199;-74
2023/03/07 10:32:52;;;;;;;8.90;8.00;;;7.30;99.90;;;;;;4916713;29;20609;-73
2023/03/07 10:35:20;;;;;;;9.30;8.43;;;7.10;99.90;;;;;;4916474;29;20730;-72
2023/03/07 10:37:55;;;;;;;9.17;8.27;;;7.10;99.90;;;;;;4916569;29;20309;-73
2023/03/07 10:40:32;;;;;;;8.73;7.93;;;7.00;99.90;;;;;;4916211;29;20671;-73
2023/03/07 10:42:59;;;;;;;9.93;8.73;;;6.80;99.90;;;;;;4915219;29;20319;-72
2023/03/07 10:45:29;;;;;;;10.97;9.50;;;6.60;99.90;;;;;;4916165;29;20219;-72
2023/03/07 10:47:59;;;;;;;9.10;8.40;;;6.50;99.90;;;;;;4916381;29;20194;-72
2023/03/07 10:50:44;;;;;;;9.73;8.83;;;6.40;99.90;;;;;;4916222;29;20261;-72
2023/03/07 10:53:28;;;;;;;9.93;9.03;;;6.50;99.90;;;;;;4916651;29;20298;-73
2023/03/07 10:56:08;;;;;;;11.57;9.50;;;6.60;99.90;;;;;;4915475;29;20706;-73
2023/03/07 10:58:34;;;;;;;11.67;10.30;;;6.40;99.90;;;;;;4932657;29;20238;-74
2023/03/07 11:01:05;;;;;;;11.23;10.20;;;6.40;99.90;;;;;;4925417;29;20526;-72
2023/03/07 11:03:43;;;;;;;9.87;8.87;;;6.50;99.90;;;;;;4922606;29;20183;-72
2023/03/07 11:06:35;;;;;;;10.53;9.53;;;6.50;99.90;;;;;;4916264;29;20207;-73
2023/03/07 11:09:16;;;;;;;10.43;9.53;;;6.40;99.90;;;;;;4900502;29;20683;-73
2023/03/07 11:11:51;;;;;;;10.80;9.30;;;6.50;99.90;;;;;;4915780;29;20195;-72
2023/03/07 11:14:17;;;;;;;10.93;9.83;;;6.60;99.90;;;;;;4915705;29;20236;-73
2023/03/07 11:16:55;;;;;;;10.60;9.60;;;6.60;99.90;;;;;;4914821;29;20315;-74
2023/03/07 11:19:51;;;;;;;9.83;8.93;;;6.60;99.90;;;;;;4915400;29;20194;-72
2023/03/07 11:22:34;;;;;;;13.60;9.90;;;6.50;99.90;;;;;;4914746;29;20199;-73
2023/03/07 11:25:21;;;;;;;10.63;8.93;;;6.30;99.90;;;;;;4915580;29;20211;-73
2023/03/07 11:27:53;;;;;;;10.80;9.70;;;6.30;99.90;;;;;;4915583;29;20238;-73
2023/03/07 11:30:33;;;;;;;11.60;10.27;;;6.20;99.90;;;;;;4915557;29;20187;-73
2023/03/07 11:33:16;;;;;;;10.53;9.47;;;6.30;99.90;;;;;;4915742;29;20193;-73
2023/03/07 11:36:02;;;;;;;11.00;9.90;;;6.40;99.90;;;;;;4915686;29;20214;-73
2023/03/07 11:38:43;;;;;;;10.87;9.70;;;6.50;99.90;;;;;;4914034;29;20219;-73
2023/03/07 11:41:12;;;;;;;10.70;9.60;;;6.50;99.90;;;;;;4915382;29;20582;-73
2023/03/07 11:44:00;;;;;;;10.73;9.73;;;6.40;99.90;;;;;;4915505;29;20178;-72
2023/03/07 11:46:45;;;;;;;10.33;9.30;;;6.30;99.90;;;;;;4915492;29;20187;-73
2023/03/07 11:49:32;;;;;;;10.83;9.63;;;6.40;99.90;;;;;;4915275;29;20195;-73
2023/03/07 11:52:21;;;;;;;11.53;10.43;;;6.30;99.90;;;;;;4916972;29;20211;-73
2023/03/07 11:55:13;;;;;;;10.40;9.43;;;6.30;99.90;;;;;;4918979;29;20206;-73
2023/03/07 11:57:51;;;;;;;10.30;9.27;;;6.40;99.90;;;;;;4916319;29;20699;-73
2023/03/07 12:00:36;;;;;;;20.17;10.10;;;6.40;99.90;;;;;;4915158;29;20187;-73
2023/03/07 12:03:27;;;;;;;9.80;8.90;;;6.40;99.90;;;;;;4915767;29;20666;-74
2023/03/07 12:06:02;;;;;;;10.40;9.40;;;6.30;99.90;;;;;;4915234;29;20248;-73
2023/03/07 12:08:49;;;;;;;11.20;10.00;;;6.20;99.90;;;;;;4913671;29;20222;-73
2023/03/07 12:11:36;;;;;;;11.37;9.90;;;6.20;99.90;;;;;;4914704;29;20187;-74
2023/03/07 12:14:28;;;;;;;13.47;10.00;;;6.30;99.90;;;;;;4914880;29;20187;-74
2023/03/07 12:17:20;;;;;;;12.43;9.23;;;6.30;99.90;;;;;;4914724;29;20199;-74
2023/03/07 12:19:52;;;;;;;14.10;10.50;;;6.30;99.90;;;;;;4914222;29;20278;-73
2023/03/07 12:22:28;;;;;;;11.00;9.67;;;6.40;99.90;;;;;;4924399;29;20179;-73
2023/03/07 12:25:07;;;;;;;12.53;9.00;;;6.50;99.90;;;;;;4916899;29;20207;-72
2023/03/07 12:27:38;;;;;;;11.03;9.40;;;6.40;99.90;;;;;;4916791;29;20562;-75
2023/03/07 12:30:15;;;;;;;9.70;8.70;;;6.40;99.90;;;;;;4915555;29;20191;-73
2023/03/07 12:32:41;;;;;;;9.93;8.93;;;6.40;99.90;;;;;;4915284;29;20193;-74
2023/03/07 12:35:28;;;;;;;10.80;9.30;;;6.40;99.90;;;;;;4914696;29;20203;-73
2023/03/07 12:38:33;;;;;;;9.70;8.60;;;6.40;99.90;;;;;;4913328;29;20224;-74
2023/03/07 12:41:26;;;;;;;11.27;8.97;;;6.40;99.90;;;;;;4914810;29;20189;-74
2023/03/07 12:44:02;;;;;;;9.97;8.97;;;6.30;99.90;;;;;;4908375;29;20199;-74
2023/03/07 12:47:02;;;;;;;9.80;8.80;;;6.50;99.90;;;;;;4914796;29;20194;-74
2023/03/07 12:49:50;;;;;;;10.13;8.17;;;6.50;99.90;;;;;;4914558;29;20242;-74
2023/03/07 12:52:44;;;;;;;8.97;8.00;;;6.60;99.90;;;;;;4914829;29;20577;-73
2023/03/07 12:55:37;;;;;;;9.67;8.70;;;6.50;99.90;;;;;;4910872;29;20219;-73
2023/03/07 12:58:40;;;;;;;13.37;8.90;;;6.60;99.90;;;;;;4916352;29;20218;-74
2023/03/07 13:01:20;;;;;;;10.60;9.07;;;6.80;99.90;;;;;;4904131;29;20539;-73
2023/03/07 13:04:09;;;;;;;10.43;9.20;;;7.30;99.90;;;;;;4914835;29;20187;-74
2023/03/07 13:06:38;;;;;;;8.90;8.00;;;7.80;99.90;;;;;;4914603;29;20187;-73
2023/03/07 13:09:05;;;;;;;9.77;8.40;;;8.10;98.60;;;;;;4914052;29;20243;-74
2023/03/07 13:11:33;;;;;;;9.53;8.57;;;8.20;98.10;;;;;;4913326;29;20234;-73
2023/03/07 13:14:03;;;;;;;9.10;8.20;;;8.30;97.40;;;;;;4914531;29;20243;-73
2023/03/07 13:16:41;;;;;;;8.67;7.63;;;8.30;97.80;;;;;;4914563;29;20686;-73
2023/03/07 13:19:35;;;;;;;9.77;8.77;;;8.20;97.10;;;;;;4913148;29;20233;-73
2023/03/07 13:22:20;;;;;;;8.67;7.57;;;8.10;97.70;;;;;;4914489;29;20647;-73
2023/03/07 13:24:48;;;;;;;8.17;7.40;;;8.10;97.70;;;;;;4914141;29;20568;-73
2023/03/07 13:27:25;;;;;;;8.63;7.37;;;8.00;97.80;;;;;;4915294;29;20198;-73
2023/03/07 13:30:10;;;;;;;8.90;7.93;;;7.70;97.70;;;;;;4917350;29;20190;-73
2023/03/07 13:32:51;;;;;;;11.67;9.07;;;7.70;98.60;;;;;;4917917;29;20246;-73
2023/03/07 13:35:26;;;;;;;8.87;7.97;;;7.70;97.60;;;;;;4917871;29;20202;-73
2023/03/07 13:37:56;;;;;;;8.53;7.60;;;7.70;97.50;;;;;;4917700;29;20207;-73
2023/03/07 13:40:34;;;;;;;8.43;7.63;;;7.60;98.40;;;;;;4916219;29;20186;-73
2023/03/07 13:43:23;;;;;;;8.60;7.77;;;7.70;98.30;;;;;;4917537;29;20193;-73
2023/03/07 13:46:30;;;;;;;9.00;8.10;;;7.70;97.60;;;;;;4915388;29;20206;-74
2023/03/07 13:48:55;;;;;;;10.30;8.33;;;7.80;98.50;;;;;;4917053;29;20199;-74
2023/03/07 13:51:21;;;;;;;8.60;7.70;;;7.90;97.60;;;;;;4917383;29;20191;-73
2023/03/07 13:53:52;;;;;;;11.07;9.27;;;8.10;98.40;;;;;;4917483;29;20567;-74
2023/03/07 13:56:27;;;;;;;8.43;7.70;;;8.10;97.10;;;;;;4917202;29;20218;-73
2023/03/07 13:59:08;;;;;;;9.60;8.63;;;7.90;97.40;;;;;;4916899;29;20713;-73
2023/03/07 14:01:49;;;;;;;8.50;7.70;;;7.90;97.20;;;;;;4916047;29;20198;-73
2023/03/07 14:04:41;;;;;;;10.33;8.00;;;8.00;96.90;;;;;;4917158;29;20194;-73
2023/03/07 14:07:11;;;;;;;8.60;7.53;;;8.20;97.30;;;;;;4915917;29;20187;-73
2023/03/07 14:09:46;;;;;;;12.03;9.60;;;8.20;97.20;;;;;;4915510;29;20198;-73
2023/03/07 14:12:50;;;;;;;20.07;14.03;;;8.20;97.30;;;;;;4917248;29;20189;-73
2023/03/07 14:15:28;;;;;;;8.90;7.90;;;8.20;98.30;;;;;;4923790;29;20218;-73
2023/03/07 14:18:15;;;;;;;7.93;7.13;;;8.00;97.10;;;;;;4917043;29;20246;-73
2023/03/07 14:21:01;;;;;;;8.57;7.60;;;7.70;96.80;;;;;;4915351;29;20210;-73
2023/03/07 14:23:57;;;;;;;7.77;7.03;;;7.70;97.40;;;;;;4916831;29;20182;-73
2023/03/07 14:26:55;;;;;;;8.50;7.63;;;7.70;97.20;;;;;;4916588;29;20243;-73
2023/03/07 14:29:23;;;;;;;7.60;6.90;;;7.70;97.00;;;;;;4914219;29;20689;-73
2023/03/07 14:31:58;;;;;;;7.60;6.93;;;7.60;97.10;;;;;;4915523;29;20644;-73
2023/03/07 14:34:32;;;;;;;8.97;8.07;;;7.50;97.10;;;;;;4916327;29;20206;-73
2023/03/07 14:37:14;;;;;;;10.80;9.63;;;7.50;97.70;;;;;;4916422;29;20242;-73
2023/03/07 14:40:02;;;;;;;14.37;10.57;;;7.30;97.60;;;;;;4915582;29;20190;-73
2023/03/07 14:42:44;;;;;;;9.50;8.60;;;7.40;98.20;;;;;;4916718;29;20601;-73
2023/03/07 14:45:19;;;;;;;8.37;7.67;;;7.40;98.10;;;;;;4916107;29;20309;-73
2023/03/07 14:48:26;;;;;;;7.17;6.67;;;7.30;98.50;;;;;;4915309;29;20210;-73
2023/03/07 14:50:53;;;;;;;8.50;7.80;;;7.30;98.20;;;;;;4876593;29;20188;-74
2023/03/07 14:53:25;;;;;;;11.73;7.50;;;7.30;98.50;;;;;;4906069;29;20687;-73
2023/03/07 14:55:53;;;;;;;7.40;6.70;;;7.20;98.20;;;;;;4916147;29;20206;-73
2023/03/07 14:58:31;;;;;;;7.30;6.70;;;7.40;98.50;;;;;;4915930;29;20309;-75
2023/03/07 15:01:04;;;;;;;8.23;6.87;;;7.50;98.50;;;;;;4926392;29;20182;-73
2023/03/07 15:03:31;;;;;;;7.10;6.43;;;7.50;98.70;;;;;;4918688;29;20191;-73
2023/03/07 15:06:02;;;;;;;7.33;6.57;;;7.50;98.20;;;;;;4915908;29;20234;-73
2023/03/07 15:08:34;;;;;;;8.33;7.57;;;7.60;98.20;;;;;;4915469;29;20197;-74
2023/03/07 15:11:05;;;;;;;8.53;7.07;;;7.60;98.50;;;;;;4916056;29;20253;-74
2023/03/07 15:13:45;;;;;;;7.53;6.70;;;7.60;97.90;;;;;;4914987;29;20209;-73
2023/03/07 15:16:44;;;;;;;6.80;6.20;;;7.60;98.10;;;;;;4915849;29;20584;-73
2023/03/07 15:19:36;;;;;;;7.33;6.63;;;7.80;98.10;;;;;;4908572;29;20269;-73
2023/03/07 15:22:07;;;;;;;8.37;6.87;;;7.80;97.40;;;;;;4916005;29;20191;-73
2023/03/07 15:24:43;;;;;;;6.87;6.37;;;7.80;97.80;;;;;;4915789;29;20215;-73
2023/03/07 15:27:12;;;;;;;6.90;6.20;;;7.60;97.20;;;;;;4915872;29;20246;-73
2023/03/07 15:29:44;;;;;;;7.83;7.23;;;7.50;98.20;;;;;;4906332;29;20282;-73
2023/03/07 15:32:32;;;;;;;7.17;6.60;;;7.50;98.10;;;;;;4914412;29;20183;-73
2023/03/07 15:35:19;;;;;;;9.10;6.67;;;7.40;98.00;;;;;;4915109;29;20210;-73
2023/03/07 15:37:56;;;;;;;7.37;6.73;;;7.30;98.20;;;;;;4916358;29;20219;-73
2023/03/07 15:40:34;;;;;;;6.90;6.30;;;7.40;98.10;;;;;;4915162;29;20189;-73
2023/03/07 15:43:03;;;;;;;7.13;6.60;;;7.50;98.40;;;;;;4921066;29;20191;-73
2023/03/07 15:45:37;;;;;;;6.60;6.17;;;7.50;98.40;;;;;;4921589;29;20267;-73
2023/03/07 15:48:21;;;;;;;7.10;6.43;;;7.60;98.30;;;;;;4917816;29;20187;-73
2023/03/07 15:50:55;;;;;;;7.47;6.87;;;7.50;98.90;;;;;;4922497;29;20182;-73
2023/03/07 15:53:35;;;;;;;7.00;6.40;;;7.40;99.30;;;;;;4930392;29;20221;-72
2023/03/07 15:56:04;;;;;;;7.57;6.87;;;7.20;98.40;;;;;;4925438;29;20214;-72
2023/03/07 15:58:30;;;;;;;7.50;6.90;;;7.20;98.90;;;;;;4920311;29;20214;-74
2023/03/07 16:01:16;;;;;;;7.60;6.80;;;7.10;99.20;;;;;;4915517;29;20556;-73
2023/03/07 16:04:05;;;;;;;7.20;6.60;;;7.10;98.70;;;;;;4914348;29;20186;-73
2023/03/07 16:06:36;;;;;;;7.03;6.50;;;7.20;99.20;;;;;;4915103;29;20183;-73
2023/03/07 16:09:09;;;;;;;7.27;6.67;;;7.30;99.40;;;;;;4914782;29;20231;-72
2023/03/07 16:11:35;;;;;;;6.83;6.23;;;7.30;98.90;;;;;;4914730;29;20231;-74
2023/03/07 16:14:01;;;;;;;7.80;6.57;;;7.50;99.10;;;;;;4914751;29;20544;-72
2023/03/07 16:16:29;;;;;;;6.23;5.83;;;7.50;98.80;;;;;;4951000;23;20234;-71
2023/03/07 16:18:57;;;;;;;6.67;6.17;;;7.40;98.40;;;;;;4932640;29;20574;-71
2023/03/07 16:21:24;;;;;;;6.67;6.13;;;7.50;98.70;;;;;;4928874;29;20216;-70
2023/03/07 16:23:50;;;;;;;6.80;6.30;;;7.40;99.40;;;;;;4929458;29;20658;-70
2023/03/07 16:26:22;;;;;;;6.50;5.90;;;7.40;99.10;;;;;;4917955;29;20296;-71
2023/03/07 16:28:49;;;;;;;11.77;9.50;;;7.50;98.80;;;;;;4912994;29;20656;-70
2023/03/07 16:31:16;;;;;;;14.00;9.83;;;7.50;99.40;;;;;;4914361;29;20616;-71
2023/03/07 16:33:43;;;;;;;8.23;7.43;;;8.00;98.40;;;;;;4915009;29;20552;-72
2023/03/07 16:36:11;;;;;;;6.60;5.97;;;9.10;98.00;;;;;;4914231;29;20609;-71
2023/03/07 16:38:36;;;;;;;7.03;6.40;;;9.40;96.60;;;;;;4914253;29;20354;-71
2023/03/07 16:41:04;;;;;;;7.13;6.53;;;8.70;96.60;;;;;;4914458;29;20670;-71
2023/03/07 16:43:33;;;;;;;7.57;6.97;;;8.00;98.10;;;;;;4913286;29;20446;-71
2023/03/07 16:46:19;;;;;;;6.30;5.80;;;7.50;98.10;;;;;;4914814;29;20206;-71
2023/03/07 16:48:45;;;;;;;8.03;7.23;;;7.30;99.20;;;;;;4894287;29;20191;-71
2023/03/07 16:51:16;;;;;;;6.77;6.20;;;7.20;99.50;;;;;;4895640;29;20266;-71
2023/03/07 16:53:47;;;;;;;7.17;6.63;;;7.10;99.00;;;;;;4894755;29;20196;-71
2023/03/07 16:56:31;;;;;;;6.83;6.33;;;7.10;99.60;;;;;;4894403;29;20207;-71
2023/03/07 16:58:58;;;;;;;6.80;6.27;;;7.00;99.80;;;;;;4895245;29;20218;-71
2023/03/07 17:01:24;;;;;;;6.53;6.03;;;6.90;99.90;;;;;;4895603;29;20505;-71
2023/03/07 17:03:50;;;;;;;7.30;6.70;;;6.90;99.90;;;;;;4901392;29;20271;-71
2023/03/07 17:06:16;;;;;;;7.20;6.70;;;6.80;99.90;;;;;;4901833;29;20203;-71
2023/03/07 17:08:44;;;;;;;7.50;6.93;;;6.70;99.90;;;;;;4905160;29;20571;-75
2023/03/07 17:11:24;;;;;;;7.63;6.60;;;6.60;99.90;;;;;;4918637;29;20190;-76
2023/03/07 17:13:53;;;;;;;9.67;6.47;;;6.60;99.90;;;;;;4917416;29;20187;-76
2023/03/07 17:16:19;;;;;;;7.30;6.60;;;6.50;99.90;;;;;;4916831;29;20234;-76
2023/03/07 17:18:45;;;;;;;7.10;6.40;;;6.40;99.90;;;;;;4917712;29;20253;-76